createdAt,value
2023-02-16T00:01:36.594Z,98236.16
2023-02-16T00:03:39.281Z,98231.00
2023-02-16T00:05:43.540Z,98235.31
2023-02-16T00:07:46.092Z,98231.88
2023-02-16T00:09:48.613Z,98236.19
2023-02-16T00:12:10.928Z,98229.28
2023-02-16T00:14:15.027Z,98230.13
2023-02-16T00:16:19.242Z,98221.53
2023-02-16T00:18:22.877Z,98224.09
2023-02-16T00:20:25.513Z,98212.06
2023-02-16T00:22:29.587Z,98209.47
2023-02-16T00:24:32.744Z,98207.72
2023-02-16T00:26:36.228Z,98202.56
2023-02-16T00:28:38.807Z,98196.56
2023-02-16T00:30:41.442Z,98206.91
2023-02-16T00:32:44.118Z,98200.88
2023-02-16T00:34:46.676Z,98201.75
2023-02-16T00:36:49.217Z,98206.91
2023-02-16T00:38:53.164Z,98200.03
2023-02-16T00:40:55.744Z,98203.50
2023-02-16T00:42:58.791Z,98199.19
2023-02-16T00:45:01.634Z,98203.50
2023-02-16T00:47:15.818Z,98192.28
2023-02-16T00:49:19.928Z,98196.59
2023-02-16T00:51:26.156Z,98189.72
2023-02-16T00:53:29.094Z,98196.59
2023-02-16T00:55:35.273Z,98192.28
2023-02-16T00:57:42.045Z,98195.75
2023-02-16T00:59:44.943Z,98197.47
2023-02-16T01:01:47.983Z,98202.63
2023-02-16T01:03:50.707Z,98205.25
2023-02-16T01:06:14.512Z,98205.25
2023-02-16T01:08:35.146Z,98200.94
2023-02-16T01:10:57.489Z,98207.81
2023-02-16T01:13:01.494Z,98201.81
2023-02-16T01:15:04.258Z,98201.81
2023-02-16T01:17:06.813Z,98207.00
2023-02-16T01:19:11.482Z,98194.91
2023-02-16T01:21:14.060Z,98197.47
2023-02-16T01:23:16.687Z,98200.00
2023-02-16T01:25:19.371Z,98209.44
2023-02-16T01:27:23.253Z,98202.53
2023-02-16T01:29:25.870Z,98199.94
2023-02-16T01:31:28.699Z,98200.81
2023-02-16T01:33:31.355Z,98203.38
2023-02-16T01:35:35.234Z,98199.09
2023-02-16T01:37:37.973Z,98193.94
2023-02-16T01:39:40.542Z,98192.25
2023-02-16T01:41:55.473Z,98197.41
2023-02-16T01:44:04.106Z,98195.72
2023-02-16T01:46:11.858Z,98190.56
2023-02-16T01:48:21.937Z,98197.41
2023-02-16T01:50:26.945Z,98195.69
2023-02-16T01:52:34.985Z,98194.88
2023-02-16T01:54:44.043Z,98197.44
2023-02-16T01:56:51.066Z,98194.88
2023-02-16T01:58:57.479Z,98192.28
2023-02-16T02:01:40.441Z,98182.84
2023-02-16T02:04:00.808Z,98182.00
2023-02-16T02:06:03.407Z,98185.38
2023-02-16T02:08:15.900Z,98186.25
2023-02-16T02:10:26.723Z,98182.75
2023-02-16T02:12:35.801Z,98184.47
2023-02-16T02:14:40.640Z,98176.72
2023-02-16T02:16:54.578Z,98174.13
2023-02-16T02:18:57.352Z,98169.84
2023-02-16T02:21:34.825Z,98169.78
2023-02-16T02:23:47.831Z,98164.63
2023-02-16T02:26:44.779Z,98155.16
2023-02-16T02:28:59.244Z,98155.13
2023-02-16T02:31:10.922Z,98150.81
2023-02-16T02:33:40.585Z,98149.09
2023-02-16T02:35:49.952Z,98153.38
2023-02-16T02:37:58.821Z,98161.13
2023-02-16T02:40:09.500Z,98160.25
2023-02-16T02:42:19.332Z,98166.28
2023-02-16T02:44:26.982Z,98167.16
2023-02-16T02:46:33.297Z,98165.44
2023-02-16T02:48:36.356Z,98162.88
2023-02-16T02:51:06.711Z,98164.56
2023-02-16T02:53:13.395Z,98172.31
2023-02-16T02:55:34.051Z,98167.09
2023-02-16T02:58:01.169Z,98174.00
2023-02-16T03:00:26.672Z,98161.09
2023-02-16T03:02:31.743Z,98170.56
2023-02-16T03:04:34.787Z,98157.66
2023-02-16T03:06:41.721Z,98166.22
2023-02-16T03:08:47.077Z,98163.63
2023-02-16T03:11:10.870Z,98172.22
2023-02-16T03:13:18.331Z,98168.72
2023-02-16T03:15:25.470Z,98172.16
2023-02-16T03:17:52.223Z,98173.00
2023-02-16T03:20:16.821Z,98168.72
2023-02-16T03:22:36.800Z,98161.88
2023-02-16T03:24:57.012Z,98166.19
2023-02-16T03:27:17.505Z,98162.75
2023-02-16T03:29:22.523Z,98152.44
2023-02-16T03:31:31.206Z,98162.72
2023-02-16T03:33:34.441Z,98153.25
2023-02-16T03:35:37.494Z,98153.25
2023-02-16T03:37:40.637Z,98155.00
2023-02-16T03:39:57.715Z,98145.50
2023-02-16T03:42:00.286Z,98149.78
2023-02-16T03:44:02.822Z,98151.47
2023-02-16T03:46:05.678Z,98155.75
2023-02-16T03:48:10.064Z,98157.50
2023-02-16T03:50:13.252Z,98157.47
2023-02-16T03:52:15.831Z,98155.75
2023-02-16T03:54:18.413Z,98154.00
2023-02-16T03:56:21.003Z,98169.44
2023-02-16T03:58:25.446Z,98166.88
2023-02-16T04:00:28.156Z,98172.91
2023-02-16T04:02:30.782Z,98182.34
2023-02-16T04:04:34.731Z,98183.19
2023-02-16T04:06:37.382Z,98185.81
2023-02-16T04:08:40.018Z,98179.81
2023-02-16T04:10:42.589Z,98182.34
2023-02-16T04:12:44.744Z,98194.34
2023-02-16T04:14:47.307Z,98186.59
2023-02-16T04:16:50.000Z,98194.34
2023-02-16T04:18:52.559Z,98196.91
2023-02-16T04:20:56.455Z,98196.97
2023-02-16T04:22:59.448Z,98192.63
2023-02-16T04:25:02.030Z,98192.63
2023-02-16T04:27:04.678Z,98196.09
2023-02-16T04:29:07.234Z,98200.38
2023-02-16T04:31:09.902Z,98199.53
2023-02-16T04:33:12.568Z,98196.09
2023-02-16T04:35:15.167Z,98198.69
2023-02-16T04:37:19.050Z,98192.69
2023-02-16T04:39:21.955Z,98194.41
2023-02-16T04:41:26.216Z,98193.53
2023-02-16T04:43:28.805Z,98188.38
2023-02-16T04:45:31.542Z,98189.22
2023-02-16T04:47:34.102Z,98187.50
2023-02-16T04:49:36.693Z,98188.34
2023-02-16T04:51:39.868Z,98196.03
2023-02-16T04:53:43.917Z,98191.72
2023-02-16T04:55:47.597Z,98196.00
2023-02-16T04:57:50.223Z,98188.28
2023-02-16T04:59:52.809Z,98189.13
2023-02-16T05:01:55.391Z,98191.72
2023-02-16T05:03:58.207Z,98189.13
2023-02-16T05:06:01.190Z,98191.72
2023-02-16T05:08:04.273Z,98190.81
2023-02-16T05:10:09.376Z,98191.63
2023-02-16T05:12:29.874Z,98189.06
2023-02-16T05:14:45.449Z,98182.16
2023-02-16T05:16:48.094Z,98183.88
2023-02-16T05:18:50.654Z,98183.00
2023-02-16T05:21:10.983Z,98186.41
2023-02-16T05:23:14.092Z,98194.13
2023-02-16T05:25:18.058Z,98191.56
2023-02-16T05:27:22.410Z,98193.31
2023-02-16T05:29:25.041Z,98205.31
2023-02-16T05:31:28.559Z,98190.75
2023-02-16T05:33:31.210Z,98197.63
2023-02-16T05:35:34.828Z,98207.09
2023-02-16T05:37:37.366Z,98199.34
2023-02-16T05:39:39.990Z,98193.34
2023-02-16T05:41:43.908Z,98196.75
2023-02-16T05:43:49.502Z,98208.78
2023-02-16T05:45:52.159Z,98206.19
2023-02-16T05:47:54.775Z,98210.47
2023-02-16T05:49:57.375Z,98220.75
2023-02-16T05:51:59.954Z,98221.56
2023-02-16T05:54:02.568Z,98216.41
2023-02-16T05:56:07.376Z,98217.28
2023-02-16T05:58:11.428Z,98215.59
2023-02-16T06:00:15.231Z,98220.75
2023-02-16T06:02:17.773Z,98230.19
2023-02-16T06:04:21.974Z,98222.47
2023-02-16T06:06:24.538Z,98220.75
2023-02-16T06:08:27.702Z,98225.03
2023-02-16T06:10:30.279Z,98219.09
2023-02-16T06:12:34.499Z,98222.53
2023-02-16T06:14:38.380Z,98219.94
2023-02-16T06:16:43.041Z,98219.91
2023-02-16T06:18:45.606Z,98227.63
2023-02-16T06:20:48.725Z,98225.03
2023-02-16T06:22:51.258Z,98221.56
2023-02-16T06:24:53.775Z,98236.13
2023-02-16T06:26:56.325Z,98247.28
2023-02-16T06:28:59.071Z,98243.75
2023-02-16T06:31:03.450Z,98238.59
2023-02-16T06:33:06.333Z,98238.63
2023-02-16T06:35:09.947Z,98233.50
2023-02-16T06:37:12.615Z,98231.72
2023-02-16T06:39:15.214Z,98229.97
2023-02-16T06:41:31.196Z,98235.09
2023-02-16T06:43:34.104Z,98233.38
2023-02-16T06:45:36.682Z,98241.03
2023-02-16T06:47:40.701Z,98237.66
2023-02-16T06:49:43.272Z,98247.09
2023-02-16T06:51:46.749Z,98241.94
2023-02-16T06:53:49.456Z,98237.66
2023-02-16T06:55:52.403Z,98247.09
2023-02-16T06:57:54.998Z,98251.41
2023-02-16T06:59:57.548Z,98250.53
2023-02-16T07:02:00.105Z,98250.53
2023-02-16T07:04:04.185Z,98255.69
2023-02-16T07:06:07.241Z,98251.34
2023-02-16T07:08:09.778Z,98253.88
2023-02-16T07:10:12.658Z,98250.50
2023-02-16T07:12:15.205Z,98255.66
2023-02-16T07:14:17.784Z,98255.66
2023-02-16T07:16:20.384Z,98249.63
2023-02-16T07:18:22.915Z,98264.19
2023-02-16T07:20:27.850Z,98263.38
2023-02-16T07:22:30.694Z,98272.00
2023-02-16T07:24:33.301Z,98265.13
2023-02-16T07:26:38.611Z,98269.44
2023-02-16T07:28:41.160Z,98263.50
2023-02-16T07:30:43.793Z,98261.88
2023-02-16T07:32:46.367Z,98261.72
2023-02-16T07:34:49.529Z,98261.69
2023-02-16T07:36:53.500Z,98260.81
2023-02-16T07:38:56.094Z,98259.13
2023-02-16T07:40:58.734Z,98269.44
2023-02-16T07:43:02.132Z,98269.50
2023-02-16T07:45:05.191Z,98262.75
2023-02-16T07:47:07.738Z,98261.09
2023-02-16T07:49:10.327Z,98262.00
2023-02-16T07:51:12.890Z,98267.22
2023-02-16T07:53:16.856Z,98269.84
2023-02-16T07:55:19.562Z,98273.34
2023-02-16T07:57:22.271Z,98263.97
2023-02-16T07:59:25.054Z,98259.75
2023-02-16T08:01:28.220Z,98259.91
2023-02-16T08:03:30.813Z,98261.59
2023-02-16T08:05:35.099Z,98263.38
2023-02-16T08:07:37.704Z,98260.88
2023-02-16T08:09:41.635Z,98263.41
2023-02-16T08:11:44.524Z,98274.63
2023-02-16T08:13:47.510Z,98269.50
2023-02-16T08:15:50.146Z,98274.69
2023-02-16T08:17:52.705Z,98283.31
2023-02-16T08:19:55.306Z,98280.75
2023-02-16T08:22:00.586Z,98277.34
2023-02-16T08:24:05.221Z,98281.69
2023-02-16T08:26:11.172Z,98275.66
2023-02-16T08:28:14.769Z,98281.69
2023-02-16T08:30:18.309Z,98276.63
2023-02-16T08:32:21.038Z,98274.13
2023-02-16T08:34:25.042Z,98280.94
2023-02-16T08:36:32.294Z,98277.53
2023-02-16T08:38:34.844Z,98280.09
2023-02-16T08:40:37.400Z,98284.41
2023-02-16T08:42:41.850Z,98278.41
2023-02-16T08:44:44.677Z,98273.25
2023-02-16T08:46:48.539Z,98282.69
2023-02-16T08:48:51.198Z,98276.69
2023-02-16T08:50:54.283Z,98280.16
2023-02-16T08:52:58.251Z,98283.69
2023-02-16T08:55:00.868Z,98279.47
2023-02-16T08:57:03.918Z,98285.44
2023-02-16T08:59:07.846Z,98282.00
2023-02-16T09:01:12.763Z,98293.19
2023-02-16T09:03:16.429Z,98271.72
2023-02-16T09:05:19.239Z,98269.16
2023-02-16T09:07:22.264Z,98271.72
2023-02-16T09:09:26.374Z,98274.28
2023-02-16T09:11:29.051Z,98271.72
2023-02-16T09:13:31.659Z,98271.72
2023-02-16T09:15:36.995Z,98268.28
2023-02-16T09:17:40.894Z,98276.06
2023-02-16T09:19:44.593Z,98270.88
2023-02-16T09:21:48.569Z,98270.03
2023-02-16T09:23:51.820Z,98267.41
2023-02-16T09:25:54.403Z,98266.56
2023-02-16T09:27:57.808Z,98269.16
2023-02-16T09:30:00.395Z,98263.97
2023-02-16T09:32:04.411Z,98258.78
2023-02-16T09:34:09.894Z,98252.75
2023-02-16T09:36:14.799Z,98261.38
2023-02-16T09:38:17.763Z,98257.94
2023-02-16T09:40:20.876Z,98262.25
2023-02-16T09:42:32.970Z,98254.47
2023-02-16T09:44:50.497Z,98251.91
2023-02-16T09:46:56.163Z,98257.06
2023-02-16T09:49:03.719Z,98257.06
2023-02-16T09:51:08.695Z,98254.47
2023-02-16T09:53:22.463Z,98252.69
2023-02-16T09:55:30.525Z,98244.91
2023-02-16T09:57:43.188Z,98254.44
2023-02-16T09:59:52.426Z,98255.28
2023-02-16T10:02:01.709Z,98254.38
2023-02-16T10:04:23.970Z,98248.38
2023-02-16T10:06:37.468Z,98250.94
2023-02-16T10:08:43.068Z,98243.19
2023-02-16T10:10:51.786Z,98244.00
2023-02-16T10:12:57.946Z,98235.38
2023-02-16T10:15:07.545Z,98242.28
2023-02-16T10:17:18.169Z,98237.94
2023-02-16T10:19:26.118Z,98242.25
2023-02-16T10:21:31.586Z,98237.97
2023-02-16T10:23:44.850Z,98237.06
2023-02-16T10:25:54.783Z,98232.72
2023-02-16T10:28:08.217Z,98238.78
2023-02-16T10:30:15.247Z,98230.09
2023-02-16T10:32:29.231Z,98239.56
2023-02-16T10:34:45.332Z,98236.84
2023-02-16T10:37:02.025Z,98235.97
2023-02-16T10:39:10.531Z,98232.56
2023-02-16T10:41:18.637Z,98236.00
2023-02-16T10:43:34.946Z,98238.50
2023-02-16T10:45:42.995Z,98224.59
2023-02-16T10:47:47.121Z,98235.81
2023-02-16T10:49:51.486Z,98226.34
2023-02-16T10:51:56.424Z,98224.59
2023-02-16T10:54:02.891Z,98216.66
2023-02-16T10:56:27.666Z,98221.88
2023-02-16T10:58:39.921Z,98221.91
2023-02-16T11:00:51.638Z,98228.88
2023-02-16T11:02:54.996Z,98228.88
2023-02-16T11:05:00.715Z,98225.44
2023-02-16T11:07:05.999Z,98218.50
2023-02-16T11:09:16.151Z,98221.97
2023-02-16T11:11:22.758Z,98213.28
2023-02-16T11:13:29.214Z,98202.72
2023-02-16T11:15:32.702Z,98215.69
2023-02-16T11:17:52.506Z,98205.28
2023-02-16T11:20:01.602Z,98210.41
2023-02-16T11:22:06.001Z,98208.53
2023-02-16T11:24:13.038Z,98203.31
2023-02-16T11:26:25.002Z,98199.81
2023-02-16T11:28:32.350Z,98202.25
2023-02-16T11:30:36.991Z,98187.41
2023-02-16T11:32:39.579Z,98186.47
2023-02-16T11:34:46.916Z,98194.06
2023-02-16T11:36:50.093Z,98194.03
2023-02-16T11:39:06.910Z,98188.69
2023-02-16T11:41:09.562Z,98186.00
2023-02-16T11:43:18.945Z,98177.97
2023-02-16T11:45:30.935Z,98178.53
2023-02-16T11:47:37.667Z,98175.03
2023-02-16T11:49:42.392Z,98179.13
2023-02-16T11:51:44.943Z,98170.28
2023-02-16T11:54:00.857Z,98165.22
2023-02-16T11:56:24.239Z,98173.63
2023-02-16T11:58:29.195Z,98170.38
2023-02-16T12:00:31.942Z,98159.72
2023-02-16T12:02:50.686Z,98160.22
2023-02-16T12:05:07.477Z,98158.44
2023-02-16T12:07:20.241Z,98159.47
2023-02-16T12:09:34.305Z,98149.03
2023-02-16T12:11:52.202Z,98149.63
2023-02-16T12:14:09.042Z,98145.50
2023-02-16T12:16:25.188Z,98138.44
2023-02-16T12:18:34.207Z,98133.44
2023-02-16T12:20:46.664Z,98141.16
2023-02-16T12:22:50.887Z,98125.44
2023-02-16T12:25:06.093Z,98119.41
2023-02-16T12:27:19.511Z,98137.66
2023-02-16T12:29:38.402Z,98124.09
2023-02-16T12:32:01.119Z,98129.34
2023-02-16T12:34:15.851Z,98131.91
2023-02-16T12:36:40.982Z,98134.28
2023-02-16T12:38:53.720Z,98118.94
2023-02-16T12:41:05.481Z,98116.19
2023-02-16T12:43:26.457Z,98108.03
2023-02-16T12:45:34.212Z,98111.97
2023-02-16T12:47:42.455Z,98105.97
2023-02-16T12:49:52.551Z,98101.06
2023-02-16T12:52:04.319Z,98095.06
2023-02-16T12:54:14.383Z,98092.91
2023-02-16T12:56:22.001Z,98090.06
2023-02-16T12:58:31.112Z,98097.91
2023-02-16T13:00:43.663Z,98092.44
2023-02-16T13:02:51.141Z,98082.00
2023-02-16T13:05:03.056Z,98079.09
2023-02-16T13:07:17.845Z,98074.56
2023-02-16T13:09:33.978Z,98074.97
2023-02-16T13:11:41.159Z,98070.19
2023-02-16T13:13:47.624Z,98065.91
2023-02-16T13:15:53.747Z,98071.50
2023-02-16T13:17:58.852Z,98059.31
2023-02-16T13:20:03.380Z,98058.66
2023-02-16T13:22:36.062Z,98060.34
2023-02-16T13:24:50.484Z,98055.94
2023-02-16T13:27:07.192Z,98059.66
2023-02-16T13:29:52.388Z,98061.69
2023-02-16T13:32:06.963Z,98044.50
2023-02-16T13:34:48.794Z,98050.63
2023-02-16T13:37:06.154Z,98054.81
2023-02-16T13:39:25.372Z,98045.41
2023-02-16T13:41:51.971Z,98049.19
2023-02-16T13:43:58.813Z,98044.41
2023-02-16T13:46:08.229Z,98048.97
2023-02-16T13:48:17.176Z,98051.03
2023-02-16T13:50:29.937Z,98050.41
2023-02-16T13:52:35.552Z,98050.78
2023-02-16T13:54:43.562Z,98051.34
2023-02-16T13:56:46.442Z,98049.44
2023-02-16T13:58:49.588Z,98049.13
2023-02-16T14:00:53.014Z,98052.09
2023-02-16T14:02:59.296Z,98058.31
2023-02-16T14:05:10.499Z,98047.22
2023-02-16T14:07:33.324Z,98045.78
2023-02-16T14:09:49.645Z,98046.69
2023-02-16T14:12:03.768Z,98052.13
2023-02-16T14:14:30.101Z,98059.84
2023-02-16T14:16:34.793Z,98051.41
2023-02-16T14:18:43.543Z,98054.34
2023-02-16T14:20:46.133Z,98051.03
2023-02-16T14:22:51.999Z,98056.63
2023-02-16T14:24:56.970Z,98050.69
2023-02-16T14:27:01.454Z,98062.88
2023-02-16T14:29:12.524Z,98057.63
2023-02-16T14:31:19.219Z,98058.66
2023-02-16T14:33:26.791Z,98066.31
2023-02-16T14:35:34.890Z,98059.19
2023-02-16T14:37:41.537Z,98056.91
2023-02-16T14:40:06.419Z,98060.56
2023-02-16T14:42:10.078Z,98067.63
2023-02-16T14:44:38.333Z,98072.59
2023-02-16T14:46:49.355Z,98063.22
2023-02-16T14:49:13.923Z,98072.88
2023-02-16T14:51:48.071Z,98068.25
2023-02-16T14:54:22.477Z,98086.88
2023-02-16T14:56:39.267Z,98073.53
2023-02-16T14:58:52.499Z,98080.66
2023-02-16T15:01:03.970Z,98085.97
2023-02-16T15:03:18.029Z,98092.31
2023-02-16T15:05:22.936Z,98086.19
2023-02-16T15:07:29.160Z,98083.28
2023-02-16T15:09:34.316Z,98092.97
2023-02-16T15:12:00.241Z,98085.13
2023-02-16T15:14:09.490Z,98087.28
2023-02-16T15:16:15.342Z,98094.53
2023-02-16T15:18:21.442Z,98091.22
2023-02-16T15:20:29.419Z,98094.88
2023-02-16T15:22:33.436Z,98087.53
2023-02-16T15:24:35.974Z,98088.59
2023-02-16T15:26:41.434Z,98090.75
2023-02-16T15:28:53.267Z,98088.41
2023-02-16T15:30:56.899Z,98094.50
2023-02-16T15:33:02.365Z,98087.91
2023-02-16T15:35:13.757Z,98086.00
2023-02-16T15:37:32.536Z,98081.00
2023-02-16T15:39:49.788Z,98076.59
2023-02-16T15:42:10.892Z,98061.22
2023-02-16T15:44:29.847Z,98066.16
2023-02-16T15:46:34.828Z,98057.19
2023-02-16T15:48:38.662Z,98066.13
2023-02-16T15:50:41.395Z,98057.06
2023-02-16T15:52:44.056Z,98058.47
2023-02-16T15:54:50.247Z,98051.19
2023-02-16T15:56:55.260Z,98050.25
2023-02-16T15:59:00.858Z,98049.72
2023-02-16T16:01:03.767Z,98055.97
2023-02-16T16:03:10.559Z,98053.50
2023-02-16T16:05:25.039Z,98047.94
2023-02-16T16:07:30.906Z,98046.59
2023-02-16T16:09:35.456Z,98043.56
2023-02-16T16:11:39.485Z,98043.84
2023-02-16T16:13:42.741Z,98037.22
2023-02-16T16:15:49.420Z,98043.47
2023-02-16T16:17:53.842Z,98035.69
2023-02-16T16:19:57.339Z,98036.59
2023-02-16T16:22:00.208Z,98046.13
2023-02-16T16:24:05.090Z,98033.44
2023-02-16T16:26:18.643Z,98041.44
2023-02-16T16:28:37.894Z,98035.72
2023-02-16T16:30:45.147Z,98041.19
2023-02-16T16:32:48.116Z,98037.94
2023-02-16T16:34:50.823Z,98039.75
2023-02-16T16:36:56.333Z,98047.53
2023-02-16T16:39:27.965Z,98052.84
2023-02-16T16:41:30.894Z,98051.16
2023-02-16T16:43:37.844Z,98051.78
2023-02-16T16:45:42.874Z,98051.25
2023-02-16T16:47:51.965Z,98055.88
2023-02-16T16:49:57.275Z,98053.44
2023-02-16T16:51:59.825Z,98054.31
2023-02-16T16:54:04.105Z,98053.63
2023-02-16T16:56:11.044Z,98051.06
2023-02-16T16:58:14.219Z,98048.41
2023-02-16T17:00:19.374Z,98046.91
2023-02-16T17:02:21.896Z,98048.88
2023-02-16T17:04:24.568Z,98052.47
2023-02-16T17:06:28.112Z,98050.78
2023-02-16T17:08:30.687Z,98048.22
2023-02-16T17:10:33.404Z,98044.78
2023-02-16T17:12:36.400Z,98054.44
2023-02-16T17:14:39.136Z,98052.66
2023-02-16T17:16:45.037Z,98046.66
2023-02-16T17:18:47.644Z,98054.56
2023-02-16T17:20:51.147Z,98047.63
2023-02-16T17:22:53.723Z,98056.44
2023-02-16T17:24:56.234Z,98057.31
2023-02-16T17:26:58.809Z,98056.50
2023-02-16T17:29:04.850Z,98059.16
2023-02-16T17:31:09.681Z,98056.59
2023-02-16T17:33:13.761Z,98065.38
2023-02-16T17:35:16.410Z,98067.97
2023-02-16T17:37:19.693Z,98063.69
2023-02-16T17:39:22.298Z,98073.28
2023-02-16T17:41:27.435Z,98075.06
2023-02-16T17:43:30.135Z,98079.38
2023-02-16T17:45:32.768Z,98081.16
2023-02-16T17:47:35.618Z,98088.16
2023-02-16T17:49:40.191Z,98086.47
2023-02-16T17:51:43.157Z,98090.75
2023-02-16T17:53:45.970Z,98083.84
2023-02-16T17:55:50.359Z,98089.00
2023-02-16T17:57:52.902Z,98089.84
2023-02-16T17:59:55.627Z,98083.78
2023-02-16T18:01:58.203Z,98077.78
2023-02-16T18:04:00.816Z,98094.28
2023-02-16T18:06:05.318Z,98093.50
2023-02-16T18:08:08.369Z,98096.88
2023-02-16T18:10:17.656Z,98087.38
2023-02-16T18:12:20.246Z,98085.63
2023-02-16T18:14:22.775Z,98082.94
2023-02-16T18:16:27.906Z,98083.81
2023-02-16T18:18:32.861Z,98083.00
2023-02-16T18:20:35.734Z,98083.06
2023-02-16T18:22:39.598Z,98090.09
2023-02-16T18:24:44.294Z,98092.78
2023-02-16T18:26:46.885Z,98087.59
2023-02-16T18:28:51.662Z,98083.34
2023-02-16T18:30:54.585Z,98092.81
2023-02-16T18:32:57.209Z,98095.41
2023-02-16T18:34:59.836Z,98098.84
2023-02-16T18:37:02.379Z,98101.47
2023-02-16T18:39:07.364Z,98101.50
2023-02-16T18:41:10.338Z,98094.63
2023-02-16T18:43:13.610Z,98103.34
2023-02-16T18:45:16.179Z,98106.00
2023-02-16T18:47:19.125Z,98106.00
2023-02-16T18:49:21.651Z,98113.50
2023-02-16T18:51:28.820Z,98115.94
2023-02-16T18:53:31.610Z,98115.28
2023-02-16T18:55:35.770Z,98107.56
2023-02-16T18:57:38.632Z,98115.31
2023-02-16T18:59:41.194Z,98111.97
2023-02-16T19:01:43.809Z,98105.06
2023-02-16T19:03:46.398Z,98108.59
2023-02-16T19:05:49.005Z,98110.41
2023-02-16T19:07:52.123Z,98109.56
2023-02-16T19:09:54.684Z,98105.19
2023-02-16T19:11:58.518Z,98106.91
2023-02-16T19:14:01.106Z,98111.34
2023-02-16T19:16:03.996Z,98112.25
2023-02-16T19:18:06.890Z,98116.53
2023-02-16T19:20:12.140Z,98110.47
2023-02-16T19:22:14.702Z,98107.09
2023-02-16T19:24:17.290Z,98113.91
2023-02-16T19:26:19.931Z,98107.84
2023-02-16T19:28:23.924Z,98111.34
2023-02-16T19:30:29.437Z,98118.34
2023-02-16T19:32:32.118Z,98110.53
2023-02-16T19:34:36.197Z,98120.94
2023-02-16T19:36:38.711Z,98127.88
2023-02-16T19:38:41.749Z,98113.84
2023-02-16T19:40:44.303Z,98116.44
2023-02-16T19:42:47.984Z,98108.66
2023-02-16T19:44:52.187Z,98115.53
2023-02-16T19:46:54.706Z,98120.00
2023-02-16T19:48:58.646Z,98116.56
2023-02-16T19:51:02.606Z,98121.78
2023-02-16T19:53:05.148Z,98117.31
2023-02-16T19:55:10.064Z,98113.91
2023-02-16T19:57:13.781Z,98111.31
2023-02-16T19:59:16.531Z,98111.38
2023-02-16T20:01:23.097Z,98117.50
2023-02-16T20:03:26.085Z,98120.09
2023-02-16T20:05:29.179Z,98114.00
2023-02-16T20:07:31.733Z,98108.81
2023-02-16T20:09:34.390Z,98114.78
2023-02-16T20:11:39.651Z,98122.69
2023-02-16T20:13:42.417Z,98114.78
2023-02-16T20:15:45.057Z,98122.63
2023-02-16T20:17:49.076Z,98113.09
2023-02-16T20:19:51.648Z,98106.16
2023-02-16T20:21:54.192Z,98113.13
2023-02-16T20:23:58.764Z,98109.50
2023-02-16T20:26:01.717Z,98111.16
2023-02-16T20:28:04.280Z,98111.91
2023-02-16T20:30:08.546Z,98110.38
2023-02-16T20:32:11.280Z,98098.28
2023-02-16T20:34:15.267Z,98109.53
2023-02-16T20:36:18.217Z,98110.47
2023-02-16T20:38:21.115Z,98101.84
2023-02-16T20:40:24.846Z,98110.53
2023-02-16T20:42:27.534Z,98103.56
2023-02-16T20:44:30.155Z,98101.03
2023-02-16T20:46:32.805Z,98111.50
2023-02-16T20:48:35.926Z,98109.81
2023-02-16T20:50:39.913Z,98111.53
2023-02-16T20:52:43.139Z,98110.66
2023-02-16T20:54:45.670Z,98101.06
2023-02-16T20:56:48.217Z,98107.19
2023-02-16T20:58:53.355Z,98112.41
2023-02-16T21:00:56.826Z,98111.53
2023-02-16T21:02:59.422Z,98117.69
2023-02-16T21:05:01.966Z,98115.13
2023-02-16T21:07:05.930Z,98115.16
2023-02-16T21:09:09.714Z,98118.59
2023-02-16T21:11:16.051Z,98105.56
2023-02-16T21:13:18.627Z,98115.19
2023-02-16T21:15:21.257Z,98111.75
2023-02-16T21:17:23.884Z,98110.84
2023-02-16T21:19:26.414Z,98105.69
2023-02-16T21:21:29.000Z,98103.06
2023-02-16T21:23:33.033Z,98103.97
2023-02-16T21:25:36.057Z,98095.16
2023-02-16T21:27:38.596Z,98091.69
2023-02-16T21:29:41.143Z,98087.38
2023-02-16T21:31:43.783Z,98087.31
2023-02-16T21:33:46.623Z,98087.34
2023-02-16T21:35:49.210Z,98089.75
2023-02-16T21:37:51.836Z,98095.88
2023-02-16T21:40:13.350Z,98087.91
2023-02-16T21:42:15.928Z,98085.31
2023-02-16T21:44:19.040Z,98089.72
2023-02-16T21:46:22.244Z,98090.66
2023-02-16T21:48:42.570Z,98087.19
2023-02-16T21:50:45.157Z,98089.88
2023-02-16T21:52:47.699Z,98088.13
2023-02-16T21:55:07.991Z,98089.91
2023-02-16T21:57:11.931Z,98098.56
2023-02-16T21:59:16.883Z,98092.53
2023-02-16T22:01:24.694Z,98096.81
2023-02-16T22:03:27.474Z,98094.25
2023-02-16T22:05:30.054Z,98092.88
2023-02-16T22:07:34.150Z,98094.66
2023-02-16T22:09:36.711Z,98099.41
2023-02-16T22:11:39.939Z,98097.84
2023-02-16T22:13:43.849Z,98096.16
2023-02-16T22:15:46.408Z,98092.69
2023-02-16T22:17:50.112Z,98091.75
2023-02-16T22:19:53.047Z,98092.41
2023-02-16T22:21:55.596Z,98077.91
2023-02-16T22:24:00.668Z,98083.84
2023-02-16T22:26:04.126Z,98077.66
2023-02-16T22:28:06.960Z,98079.47
2023-02-16T22:30:11.713Z,98076.00
2023-02-16T22:32:14.763Z,98073.50
2023-02-16T22:34:19.206Z,98074.50
2023-02-16T22:36:21.757Z,98078.88
2023-02-16T22:38:24.313Z,98074.56
2023-02-16T22:40:26.861Z,98071.19
2023-02-16T22:42:30.241Z,98077.94
2023-02-16T22:44:32.831Z,98082.88
2023-02-16T22:46:36.837Z,98073.16
2023-02-16T22:48:39.558Z,98076.41
2023-02-16T22:50:42.120Z,98065.66
2023-02-16T22:52:44.723Z,98061.59
2023-02-16T22:54:47.286Z,98071.69
2023-02-16T22:56:49.914Z,98060.59
2023-02-16T22:58:52.436Z,98070.13
2023-02-16T23:00:55.797Z,98076.88
2023-02-16T23:02:59.779Z,98074.16
2023-02-16T23:05:02.375Z,98073.69
2023-02-16T23:07:05.004Z,98069.25
2023-02-16T23:09:10.093Z,98066.94
2023-02-16T23:11:13.518Z,98067.84
2023-02-16T23:13:16.073Z,98076.66
2023-02-16T23:15:18.703Z,98076.09
2023-02-16T23:17:21.282Z,98074.84
2023-02-16T23:19:27.373Z,98065.34
2023-02-16T23:21:32.033Z,98075.63
2023-02-16T23:23:34.757Z,98067.16
2023-02-16T23:25:36.463Z,98064.50
2023-02-16T23:27:38.908Z,98071.44
2023-02-16T23:29:41.511Z,98069.38
2023-02-16T23:31:46.758Z,98072.38
2023-02-16T23:33:50.461Z,98072.06
2023-02-16T23:35:55.806Z,98070.69
2023-02-16T23:37:59.866Z,98074.25
2023-02-16T23:40:02.495Z,98076.16
2023-02-16T23:42:05.435Z,98070.41
2023-02-16T23:44:09.377Z,98073.16
2023-02-16T23:46:12.866Z,98069.94
2023-02-16T23:48:15.561Z,98078.59
2023-02-16T23:50:18.414Z,98073.56
2023-02-16T23:52:22.367Z,98071.88
2023-02-16T23:54:24.949Z,98076.56
2023-02-16T23:56:29.484Z,98079.28
2023-02-16T23:58:34.039Z,98071.66
